KLGF

Laguna AAF (Yuma Proving Ground) Airport

Yuma Proving Ground(Yuma), Arizona, USA
METAR KLGF 201355Z AUTO 00000KT 10SM CLR 31/17 A2982
Observed Flight Rules
Aug-20 @ 13:55 UTC (3 hours ago) Visual Flight Rules
Visibility Clouds
10 miles
  • Clear skies
Temperatures Readings
Current 31°C / 88°F
Dewpoint 17°C / 63°F
Humidity 43%
Altimeter 29.82" Hg
Pressure 1010 hPa
Elevation 132
METAR KLGF 201355Z AUTO 00000KT 10SM CLR 31/17 A2982
Observed Flight Rules
Aug-20 @ 13:55 UTC
(3 hours ago)
VFR
Clouds
  • Clear skies
Temperature Dewpoint
31°C / 88°F 17°C / 63°F
Humidity Altimeter Pressure
43% 29.82" Hg 1010 hPa